createdAt,value
2022-09-24T20:39:12.568Z,34.70
2022-09-24T20:41:43.169Z,35.30
2022-09-24T20:44:12.118Z,36.63
2022-09-24T20:46:40.887Z,36.70
2022-09-24T20:49:17.226Z,37.83
2022-09-24T20:51:45.868Z,34.50
2022-09-24T20:54:15.942Z,35.70
2022-09-24T20:56:45.318Z,34.07
2022-09-24T20:59:14.255Z,36.30
2022-09-24T21:01:43.257Z,38.53
2022-09-24T21:04:12.044Z,37.43
2022-09-24T21:06:40.856Z,35.80
2022-09-24T21:09:09.569Z,36.47
2022-09-24T21:11:39.569Z,37.50
2022-09-24T21:14:12.930Z,38.10
2022-09-24T21:16:41.588Z,33.90
2022-09-24T21:19:10.309Z,37.40
2022-09-24T21:21:40.833Z,38.97
2022-09-24T21:24:13.983Z,36.57
2022-09-24T21:26:45.696Z,38.10
2022-09-24T21:29:18.122Z,37.40
2022-09-24T21:31:48.821Z,37.77
2022-09-24T21:34:21.031Z,37.97
2022-09-24T21:36:52.083Z,40.50
2022-09-24T21:39:23.578Z,39.47
2022-09-24T21:53:00.090Z,35.83
2022-09-24T21:55:30.518Z,39.13
2022-09-24T21:57:59.561Z,40.13
2022-09-24T22:00:28.377Z,37.27
2022-09-24T22:02:57.275Z,40.30
2022-09-24T22:05:26.023Z,42.40
2022-09-24T22:07:56.247Z,39.53
2022-09-24T22:10:26.777Z,40.00
2022-09-24T22:12:55.503Z,40.93
2022-09-24T22:15:24.272Z,41.00
2022-09-24T22:17:52.922Z,41.33
2022-09-24T22:20:21.546Z,43.53
2022-09-24T22:22:51.566Z,41.57
2022-09-24T22:25:20.321Z,48.10
2022-09-24T22:27:50.299Z,41.57
2022-09-24T22:30:19.115Z,46.30
2022-09-24T22:32:48.242Z,42.00
2022-09-24T22:35:36.418Z,41.40
2022-09-24T22:38:07.047Z,47.17
2022-09-24T22:40:36.719Z,45.90
2022-09-24T22:43:06.706Z,43.93
2022-09-24T22:45:35.284Z,48.63
2022-09-24T22:48:04.257Z,44.77
2022-09-24T22:50:32.905Z,47.00
2022-09-24T22:53:02.106Z,46.13
2022-09-24T22:55:31.200Z,46.70
2022-09-24T22:57:59.872Z,41.63
2022-09-24T23:00:30.217Z,47.83
2022-09-24T23:02:58.797Z,43.07
2022-09-24T23:05:28.899Z,47.57
2022-09-24T23:07:57.705Z,44.00
2022-09-24T23:10:30.127Z,46.70
2022-09-24T23:12:58.920Z,48.57
2022-09-24T23:15:28.991Z,44.73
2022-09-24T23:17:57.674Z,47.50
2022-09-24T23:20:27.337Z,43.07
2022-09-24T23:22:56.041Z,46.57
2022-09-24T23:25:24.628Z,42.90
2022-09-24T23:27:53.321Z,43.03
2022-09-24T23:30:22.581Z,45.67
2022-09-24T23:32:55.424Z,42.37
2022-09-24T23:35:24.074Z,42.53
2022-09-24T23:37:52.852Z,46.30
2022-09-24T23:40:21.460Z,44.83
2022-09-24T23:42:50.722Z,48.07
2022-09-24T23:45:19.288Z,47.10
2022-09-24T23:47:47.854Z,48.53
2022-09-24T23:50:17.997Z,53.50
2022-09-24T23:52:46.825Z,50.07
2022-09-24T23:55:15.450Z,48.73
2022-09-24T23:57:43.993Z,49.47
